Time;durP1;ratioP1;P1;durP2;ratioP2;P2;SDS_P1;SDS_P2;PMS_P1;PMS_P2;Temp;Humidity;BMP_temperature;BMP_pressure;BME280_temperature;BME280_humidity;BME280_pressure;Samples;Min_cycle;Max_cycle;Signal;HPM_P1;HPM_P2
2022/06/17 00:00:54;;;;;;;;;11.67;11.67;;;;;26.17;40.85;101854.50;5056392;28;45448;-73
2022/06/17 00:03:25;;;;;;;;;10.33;10.33;;;;;26.12;41.08;101851.97;5056379;28;45470;-73
2022/06/17 00:05:51;;;;;;;;;14.33;10.00;;;;;26.07;42.17;101843.13;5056671;28;45511;-72
2022/06/17 00:08:19;;;;;;;;;10.67;10.33;;;;;26.05;41.93;101841.44;5038268;28;47365;-73
2022/06/17 00:10:45;;;;;;;;;11.00;11.00;;;;;26.01;41.80;101840.66;5055410;28;45374;-72
2022/06/17 00:13:16;;;;;;;;;13.67;12.33;;;;;25.96;41.95;101850.78;5055847;28;49319;-72
2022/06/17 00:15:42;;;;;;;;;12.00;11.00;;;;;25.92;42.50;101848.22;5056209;28;45260;-73
2022/06/17 00:18:08;;;;;;;;;11.00;11.00;;;;;25.85;42.35;101836.75;5056497;28;46737;-72
2022/06/17 00:20:34;;;;;;;;;12.00;10.00;;;;;25.79;43.13;101845.09;5056352;28;45489;-73
2022/06/17 00:23:01;;;;;;;;;13.33;12.33;;;;;25.74;43.25;101841.66;5056274;28;45221;-73
2022/06/17 00:25:34;;;;;;;;;11.00;11.00;;;;;25.68;43.12;101842.75;5038546;28;45538;-72
2022/06/17 00:28:00;;;;;;;;;13.00;13.00;;;;;25.63;43.18;101849.25;5055770;28;46569;-73
2022/06/17 00:30:29;;;;;;;;;12.67;12.67;;;;;25.56;43.25;101843.16;5056170;28;45438;-73
2022/06/17 00:33:09;;;;;;;;;13.00;11.00;;;;;25.50;44.29;101846.97;5056179;28;45323;-72
2022/06/17 00:35:40;;;;;;;;;14.00;12.00;;;;;25.45;44.16;101851.66;5050194;28;45241;-72
2022/06/17 00:38:10;;;;;;;;;14.67;11.33;;;;;25.39;44.05;101845.59;5037544;28;46302;-72
2022/06/17 00:40:36;;;;;;;;;11.67;11.00;;;;;25.35;44.22;101847.50;5055916;28;45537;-72
2022/06/17 00:43:07;;;;;;;;;10.00;10.00;;;;;25.31;44.44;101844.03;5055961;28;48610;-72
2022/06/17 00:45:37;;;;;;;;;11.33;11.33;;;;;25.24;45.48;101839.75;5053045;28;45490;-73
2022/06/17 00:48:30;;;;;;;;;17.67;14.00;;;;;25.21;45.16;101849.81;5055997;28;46364;-72
2022/06/17 00:51:07;;;;;;;;;13.00;11.67;;;;;25.14;45.03;101849.13;5051116;28;45435;-72
2022/06/17 00:53:45;;;;;;;;;12.00;11.00;;;;;25.08;45.26;101850.19;5052181;28;45450;-72
2022/06/17 00:56:21;;;;;;;;;13.67;13.00;;;;;25.03;45.68;101849.44;5037539;28;45673;-72
2022/06/17 00:59:14;;;;;;;;;15.00;14.00;;;;;25.00;46.04;101852.25;5053169;28;48024;-72
2022/06/17 01:02:01;;;;;;;;;16.00;14.00;;;;;24.95;46.56;101858.75;5047752;28;45498;-73
2022/06/17 01:04:32;;;;;;;;;11.33;11.33;;;;;24.91;46.44;101854.38;5055775;28;45557;-72
2022/06/17 01:07:02;;;;;;;;;15.00;13.00;;;;;24.87;46.95;101852.69;5055634;28;45311;-72
2022/06/17 01:12:19;;;;;;;;;12.67;12.67;;;;;24.82;46.92;101861.84;5040563;28;45581;-72
2022/06/17 01:14:44;;;;;;;;;11.33;11.00;;;;;24.80;47.38;101865.53;5056195;28;45642;-72
2022/06/17 01:17:16;;;;;;;;;12.00;12.00;;;;;24.76;47.20;101861.13;5039831;28;45324;-72
2022/06/17 01:19:47;;;;;;;;;13.00;13.00;;;;;24.72;47.55;101870.31;5038888;28;47460;-72
2022/06/17 01:22:48;;;;;;;;;14.33;13.00;;;;;24.70;47.62;101873.03;5037560;28;45352;-73
2022/06/17 01:25:43;;;;;;;;;15.00;12.67;;;;;24.70;47.54;101864.03;5052912;28;45373;-73
2022/06/17 01:28:15;;;;;;;;;13.33;12.33;;;;;24.66;48.09;101862.34;5053163;28;45458;-72
2022/06/17 01:30:44;;;;;;;;;14.33;12.00;;;;;24.65;48.16;101864.19;5058837;28;46547;-72
2022/06/17 01:33:41;;;;;;;;;14.33;14.33;;;;;24.62;48.39;101872.41;5040986;28;45384;-72
2022/06/17 01:36:10;;;;;;;;;12.00;12.00;;;;;24.60;48.25;101870.66;5052033;28;45434;-73
2022/06/17 01:38:45;;;;;;;;;12.00;12.00;;;;;24.55;48.46;101866.31;5038450;28;45447;-72
2022/06/17 01:41:11;;;;;;;;;13.33;11.33;;;;;24.54;48.61;101864.50;5035443;28;46565;-73
2022/06/17 01:43:48;;;;;;;;;13.00;11.00;;;;;24.53;48.38;101862.75;5041145;28;45533;-73
2022/06/17 01:46:18;;;;;;;;;12.00;10.00;;;;;24.51;48.57;101864.63;5058932;28;45461;-72
2022/06/17 01:48:54;;;;;;;;;13.67;12.67;;;;;24.48;48.97;101871.91;5041439;28;45277;-73
2022/06/17 01:51:23;;;;;;;;;13.67;12.00;;;;;24.46;49.03;101871.97;5040245;28;46445;-72
2022/06/17 01:53:53;;;;;;;;;11.67;10.00;;;;;24.42;49.33;101889.19;5059002;28;45358;-72
2022/06/17 01:56:22;;;;;;;;;16.67;12.00;;;;;24.39;48.94;101886.56;5040181;28;45558;-72
2022/06/17 01:58:58;;;;;;;;;10.33;10.33;;;;;24.36;49.28;101886.69;5040863;28;45242;-73
2022/06/17 02:01:25;;;;;;;;;13.67;13.67;;;;;24.35;49.70;101890.31;5039938;28;47278;-72
2022/06/17 02:03:55;;;;;;;;;13.00;11.00;;;;;24.32;49.85;101893.06;5057820;28;45524;-73
2022/06/17 02:06:43;;;;;;;;;12.67;11.33;;;;;24.30;50.18;101897.63;5040396;28;45558;-72
2022/06/17 02:09:08;;;;;;;;;12.33;12.33;;;;;24.26;50.54;101904.03;5040615;28;45486;-72
2022/06/17 02:11:34;;;;;;;;;14.00;12.00;;;;;24.22;50.41;101899.66;5057500;28;45589;-72
2022/06/17 02:14:06;;;;;;;;;14.67;14.67;;;;;24.22;50.48;101897.84;5039330;28;65051;-72
2022/06/17 02:16:34;;;;;;;;;13.00;13.00;;;;;24.21;50.74;101904.16;5041189;28;45338;-72
2022/06/17 02:19:00;;;;;;;;;12.00;12.00;;;;;24.18;50.96;101901.56;5058821;28;45363;-72
2022/06/17 02:22:03;;;;;;;;;12.33;12.33;;;;;24.16;51.26;101906.09;5057257;28;54873;-72
2022/06/17 02:24:29;;;;;;;;;18.00;12.00;;;;;24.13;51.18;101908.91;5055565;28;45385;-73
2022/06/17 02:26:55;;;;;;;;;12.00;12.00;;;;;24.10;51.66;101911.69;5058304;28;45473;-73
2022/06/17 02:29:23;;;;;;;;;13.00;13.00;;;;;24.07;51.66;101917.16;5040517;28;45393;-72
2022/06/17 02:31:48;;;;;;;;;12.00;11.33;;;;;24.04;52.05;101914.56;5039559;28;46644;-72
2022/06/17 02:34:16;;;;;;;;;12.67;12.00;;;;;24.02;51.65;101921.78;5038290;28;69107;-72
2022/06/17 02:36:49;;;;;;;;;12.67;11.67;;;;;23.96;51.94;101906.66;5057732;28;45203;-73
2022/06/17 02:39:15;;;;;;;;;13.00;11.33;;;;;23.95;52.44;101909.41;5058122;28;45175;-73
2022/06/17 02:41:44;;;;;;;;;12.33;12.33;;;;;23.93;52.25;101916.66;5057166;28;67276;-72
2022/06/17 02:44:28;;;;;;;;;12.67;11.67;;;;;23.89;52.28;101915.84;5057662;28;45315;-72
2022/06/17 02:46:54;;;;;;;;;11.00;11.00;;;;;23.87;52.54;101922.25;5057384;28;45292;-73
2022/06/17 02:49:26;;;;;;;;;12.33;11.33;;;;;23.84;52.88;101917.78;5058235;28;45348;-73
2022/06/17 02:51:52;;;;;;;;;15.00;12.00;;;;;23.80;52.82;101924.19;5056937;28;46563;-72
2022/06/17 02:54:26;;;;;;;;;12.00;12.00;;;;;23.77;53.50;101921.59;5058019;28;45355;-72
2022/06/17 02:57:01;;;;;;;;;10.00;10.00;;;;;23.74;53.43;101909.06;5039610;28;45638;-72
2022/06/17 02:59:32;;;;;;;;;17.67;14.33;;;;;23.72;53.92;101915.44;5056125;28;45422;-72
2022/06/17 03:02:01;;;;;;;;;13.67;12.33;;;;;23.70;54.23;101922.66;5056851;28;47517;-72
2022/06/17 03:04:29;;;;;;;;;15.33;12.67;;;;;23.66;54.28;101921.00;5038328;28;45366;-73
2022/06/17 03:06:56;;;;;;;;;17.67;14.33;;;;;23.63;54.44;101915.66;5055759;28;45460;-72
2022/06/17 03:09:24;;;;;;;;;13.33;13.00;;;;;23.61;54.42;101909.41;5057379;28;45495;-72
2022/06/17 03:11:54;;;;;;;;;16.00;14.00;;;;;23.59;54.62;101904.03;5057352;28;46914;-73
2022/06/17 03:14:21;;;;;;;;;11.67;11.00;;;;;23.60;54.85;101902.25;5039260;28;45580;-72
2022/06/17 03:16:50;;;;;;;;;16.00;12.67;;;;;23.57;54.95;101905.88;5056511;28;45464;-73
2022/06/17 03:19:17;;;;;;;;;16.67;12.67;;;;;23.53;55.48;101899.69;5057125;28;45170;-72
2022/06/17 03:21:43;;;;;;;;;16.00;14.00;;;;;23.50;55.46;101902.47;5056064;28;70394;-72
2022/06/17 03:24:16;;;;;;;;;13.33;12.00;;;;;23.46;55.83;101894.50;5057598;28;45409;-72
2022/06/17 03:26:48;;;;;;;;;14.33;13.00;;;;;23.43;55.90;101891.88;5052087;28;45293;-72
2022/06/17 03:29:16;;;;;;;;;14.33;14.33;;;;;23.40;56.16;101894.66;5057432;28;45375;-72
2022/06/17 03:31:59;;;;;;;;;11.33;11.33;;;;;23.37;56.63;101892.03;5039020;28;45320;-72
2022/06/17 03:34:32;;;;;;;;;15.00;12.00;;;;;23.35;56.46;101884.00;5039034;28;45307;-73
2022/06/17 03:37:10;;;;;;;;;13.00;11.33;;;;;23.33;56.89;101872.38;5039152;28;45360;-72
2022/06/17 03:39:49;;;;;;;;;16.00;14.33;;;;;23.27;56.91;101853.63;5038867;28;45650;-72
2022/06/17 03:42:19;;;;;;;;;13.33;13.33;;;;;23.29;57.50;101851.81;5057118;28;47597;-72
2022/06/17 03:44:51;;;;;;;;;15.67;13.33;;;;;23.27;57.49;101869.81;5038707;28;45585;-73
2022/06/17 03:47:49;;;;;;;;;13.00;11.00;;;;;23.26;58.10;101897.69;5038491;28;45438;-72
2022/06/17 03:50:35;;;;;;;;;16.67;11.00;;;;;23.20;57.86;101897.84;5025927;28;45781;-72
2022/06/17 03:53:21;;;;;;;;;15.33;12.67;;;;;23.16;58.54;101904.22;5038290;28;46583;-72
2022/06/17 03:55:47;;;;;;;;;16.33;12.00;;;;;23.16;58.64;101913.19;5056027;28;45502;-72
2022/06/17 03:58:16;;;;;;;;;14.67;13.67;;;;;23.12;58.84;101916.03;5038495;28;61820;-72
2022/06/17 04:00:57;;;;;;;;;13.00;11.00;;;;;23.08;59.08;101917.00;5053703;28;45505;-73
2022/06/17 04:03:26;;;;;;;;;12.67;11.33;;;;;23.07;59.36;101926.03;5027500;28;46744;-72
2022/06/17 04:05:56;;;;;;;;;15.00;13.00;;;;;23.04;59.67;101921.56;5035024;28;45556;-72
2022/06/17 04:08:22;;;;;;;;;13.67;13.67;;;;;22.99;60.34;101910.91;5038936;28;45369;-72
2022/06/17 04:10:47;;;;;;;;;13.33;13.33;;;;;22.97;60.12;101915.44;5056708;28;45505;-72
2022/06/17 04:13:18;;;;;;;;;13.33;11.33;;;;;22.95;60.28;101911.88;5055851;28;46402;-72
2022/06/17 04:15:48;;;;;;;;;14.33;13.33;;;;;22.95;60.69;101906.50;5056776;28;45531;-72
2022/06/17 04:18:13;;;;;;;;;11.33;11.33;;;;;22.94;61.04;101903.84;5038398;28;45289;-72
2022/06/17 04:20:52;;;;;;;;;12.00;11.33;;;;;22.92;61.08;101903.91;5055404;28;56651;-72
2022/06/17 04:23:22;;;;;;;;;13.67;13.67;;;;;22.93;61.48;101908.34;5055719;28;46359;-72
2022/06/17 04:26:13;;;;;;;;;14.33;13.00;;;;;22.92;62.20;101900.31;5056186;28;45404;-73
2022/06/17 04:28:45;;;;;;;;;16.00;14.33;;;;;22.92;61.99;101911.09;5035440;28;45372;-72
2022/06/17 04:31:16;;;;;;;;;15.00;12.00;;;;;22.91;61.98;101907.53;5038550;28;45526;-72
2022/06/17 04:33:51;;;;;;;;;16.33;14.00;;;;;22.93;62.38;101904.78;5037153;28;46515;-72
2022/06/17 04:36:30;;;;;;;;;14.00;13.00;;;;;22.94;62.92;101917.31;5037966;28;45500;-72
2022/06/17 04:39:01;;;;;;;;;14.33;13.33;;;;;22.94;62.82;101920.00;5037786;28;45489;-72
2022/06/17 04:41:30;;;;;;;;;15.00;12.00;;;;;22.95;63.15;101919.97;5055873;28;45642;-72
2022/06/17 04:44:09;;;;;;;;;13.33;12.00;;;;;22.95;63.41;101916.38;5037866;28;46865;-72
2022/06/17 04:46:52;;;;;;;;;13.67;12.67;;;;;22.94;63.55;101918.19;5055265;28;45388;-72
2022/06/17 04:49:25;;;;;;;;;11.33;10.00;;;;;22.94;64.17;101915.50;5052043;28;45443;-72
2022/06/17 04:51:53;;;;;;;;;12.00;12.00;;;;;22.96;64.18;101918.19;5056402;28;45332;-72
2022/06/17 04:54:18;;;;;;;;;14.67;14.67;;;;;22.94;64.27;101920.91;5055772;28;47582;-72
2022/06/17 04:56:50;;;;;;;;;12.00;12.00;;;;;22.96;64.50;101919.06;5036478;28;64270;-72
2022/06/17 04:59:36;;;;;;;;;12.33;12.00;;;;;22.97;64.51;101920.84;5022645;28;45372;-72
2022/06/17 05:02:07;;;;;;;;;15.67;12.33;;;;;22.96;65.25;101919.06;5050856;28;45393;-72
2022/06/17 05:04:34;;;;;;;;;13.00;13.00;;;;;22.98;65.20;101913.63;5048780;28;47633;-72
2022/06/17 05:07:00;;;;;;;;;12.33;12.33;;;;;23.01;65.91;101921.66;5051831;28;65803;-72
2022/06/17 05:09:32;;;;;;;;;15.33;13.67;;;;;23.02;66.18;101920.75;5054685;28;63545;-72
2022/06/17 05:12:01;;;;;;;;;11.33;10.33;;;;;23.05;66.01;101909.88;5037492;28;45430;-72
2022/06/17 05:14:30;;;;;;;;;14.67;12.00;;;;;23.09;66.29;101914.28;5037848;28;47599;-72
2022/06/17 05:16:57;;;;;;;;;18.67;13.67;;;;;23.12;66.88;101913.34;5054188;28;45905;-71
2022/06/17 05:19:22;;;;;;;;;12.00;11.33;;;;;23.15;66.81;101908.72;5055761;28;45525;-72
2022/06/17 05:21:48;;;;;;;;;15.33;14.33;;;;;23.19;67.08;101901.47;5055415;28;45331;-72
2022/06/17 05:24:13;;;;;;;;;16.00;15.00;;;;;23.24;67.49;101896.84;5055470;28;47220;-72
2022/06/17 05:26:38;;;;;;;;;13.33;13.33;;;;;23.28;67.39;101895.88;5055256;28;45253;-73
2022/06/17 05:29:07;;;;;;;;;13.67;12.33;;;;;23.34;67.35;101897.53;5055825;28;45629;-72
2022/06/17 05:31:32;;;;;;;;;15.67;15.67;;;;;23.38;67.52;101897.38;5055044;28;45265;-72
2022/06/17 05:33:58;;;;;;;;;17.67;15.33;;;;;23.43;67.37;101890.06;5054630;28;65769;-72
2022/06/17 05:36:23;;;;;;;;;19.00;16.00;;;;;23.48;67.94;101896.22;5055704;28;45572;-72
2022/06/17 05:38:48;;;;;;;;;16.67;13.00;;;;;23.53;67.53;101894.28;5054823;28;45468;-72
2022/06/17 05:41:20;;;;;;;;;19.00;14.00;;;;;23.56;67.74;101885.25;5052586;28;56436;-72
2022/06/17 05:43:46;;;;;;;;;17.00;14.00;;;;;23.63;68.17;101894.09;5040224;28;47441;-72
2022/06/17 05:46:11;;;;;;;;;19.33;15.33;;;;;23.66;68.38;101894.03;5061062;28;45557;-72
2022/06/17 05:48:37;;;;;;;;;16.00;14.00;;;;;23.68;68.09;101886.78;5054700;28;58330;-72
2022/06/17 05:51:02;;;;;;;;;17.00;14.00;;;;;23.73;67.93;101890.22;5054958;28;45231;-72
2022/06/17 05:53:28;;;;;;;;;19.67;17.33;;;;;23.77;68.23;101889.22;5054879;28;47451;-72
2022/06/17 05:55:54;;;;;;;;;16.67;13.33;;;;;23.82;68.26;101890.00;5055196;28;45399;-72
2022/06/17 05:58:21;;;;;;;;;15.00;15.00;;;;;23.86;68.36;101898.84;5055721;28;45310;-72
2022/06/17 06:00:46;;;;;;;;;14.67;14.00;;;;;23.89;68.78;101890.69;5047030;28;58431;-72
2022/06/17 06:03:17;;;;;;;;;17.00;15.00;;;;;23.94;68.86;101891.47;5172891;22;46197;-72
2022/06/17 06:05:43;;;;;;;;;19.00;15.00;;;;;23.96;69.07;101901.25;5030859;28;45539;-72
2022/06/17 06:08:08;;;;;;;;;11.00;11.00;;;;;24.02;67.98;101893.03;5053812;28;64219;-72
2022/06/17 06:10:36;;;;;;;;;14.00;10.00;;;;;24.08;67.42;101893.78;5059264;28;54404;-72
2022/06/17 06:13:05;;;;;;;;;12.00;9.67;;;;;24.12;65.55;101887.34;5057907;28;46205;-72
2022/06/17 06:15:39;;;;;;;;;10.67;8.33;;;;;24.19;64.94;101872.75;5055938;28;45490;-71
2022/06/17 06:18:10;;;;;;;;;10.67;9.00;;;;;24.24;64.49;101874.41;5059245;28;45561;-72
2022/06/17 06:20:35;;;;;;;;;12.67;11.00;;;;;24.29;64.27;101867.06;5064139;28;45502;-71
2022/06/17 06:23:02;;;;;;;;;13.67;10.00;;;;;24.38;63.23;101873.13;5071333;28;46177;-72
2022/06/17 06:25:27;;;;;;;;;10.67;10.67;;;;;24.42;62.92;101862.19;5064207;28;45439;-71
2022/06/17 06:27:53;;;;;;;;;11.33;9.00;;;;;24.47;62.43;101857.53;5058334;28;45479;-71
2022/06/17 06:30:25;;;;;;;;;14.00;11.00;;;;;24.52;61.57;101852.88;5067727;28;45580;-72
2022/06/17 06:32:56;;;;;;;;;9.67;8.00;;;;;24.60;61.58;101860.72;5062300;28;47566;-70
2022/06/17 06:35:23;;;;;;;;;14.00;11.00;;;;;24.68;61.33;101860.50;5050407;28;46518;-72
2022/06/17 06:37:49;;;;;;;;;9.00;9.00;;;;;24.74;60.84;101863.03;5058039;28;45344;-71
2022/06/17 06:40:14;;;;;;;;;8.33;8.00;;;;;24.78;59.94;101853.88;5058200;28;45340;-72
2022/06/17 06:42:39;;;;;;;;;9.00;9.00;;;;;24.83;60.20;101855.50;5060135;28;45972;-71
2022/06/17 06:45:06;;;;;;;;;13.33;9.67;;;;;24.88;59.07;101859.88;5042450;28;60206;-71
2022/06/17 06:47:32;;;;;;;;;11.33;10.00;;;;;24.92;59.46;101869.63;5042209;28;46947;-72
2022/06/17 06:49:57;;;;;;;;;8.33;7.33;;;;;24.99;59.31;101863.13;5059701;28;45501;-72
2022/06/17 06:52:23;;;;;;;;;11.33;10.00;;;;;25.05;58.92;101860.22;5059374;28;47527;-72
2022/06/17 06:54:50;;;;;;;;;11.00;9.00;;;;;25.10;58.96;101858.28;5059755;28;45538;-72
2022/06/17 06:57:16;;;;;;;;;10.33;8.33;;;;;25.16;58.43;101863.47;5064211;28;45561;-72
2022/06/17 06:59:41;;;;;;;;;12.00;7.67;;;;;25.22;58.50;101865.97;5061337;28;45578;-72
2022/06/17 07:02:08;;;;;;;;;11.33;10.00;;;;;25.25;58.20;101868.59;5058226;28;46576;-72
2022/06/17 07:04:34;;;;;;;;;14.00;11.00;;;;;25.31;57.35;101868.38;5063365;28;45641;-73
2022/06/17 07:06:59;;;;;;;;;13.67;9.00;;;;;25.39;57.31;101872.63;5067376;28;45819;-72
2022/06/17 07:09:25;;;;;;;;;12.33;10.33;;;;;25.44;56.91;101876.06;5065662;28;57411;-74
2022/06/17 07:11:51;;;;;;;;;11.67;8.67;;;;;25.48;56.23;101878.59;5059718;28;46785;-73
2022/06/17 07:14:16;;;;;;;;;9.33;9.33;;;;;25.54;56.33;101872.97;5059170;28;45359;-75
2022/06/17 07:16:41;;;;;;;;;12.67;8.00;;;;;25.59;55.70;101878.22;5055644;28;45773;-74
2022/06/17 07:19:10;;;;;;;;;9.00;8.33;;;;;25.64;55.98;101884.38;5061761;28;56068;-74
2022/06/17 07:21:36;;;;;;;;;9.33;9.33;;;;;25.70;55.41;101884.16;5043850;28;46497;-73
2022/06/17 07:24:01;;;;;;;;;10.67;9.33;;;;;25.74;55.72;101866.00;5053679;28;45989;-75
2022/06/17 07:26:27;;;;;;;;;13.33;9.00;;;;;25.78;55.70;101873.06;5066564;28;58083;-76
2022/06/17 07:28:54;;;;;;;;;8.00;8.00;;;;;25.82;55.37;101875.63;5061479;28;45536;-76
2022/06/17 07:31:22;;;;;;;;;9.33;9.33;;;;;25.87;53.58;101875.47;5069423;28;47648;-75
2022/06/17 07:33:47;;;;;;;;;13.00;11.67;;;;;25.91;54.26;101884.34;5056439;28;45716;-75
2022/06/17 07:39:53;;;;;;;;;11.00;9.00;;;;;25.96;54.44;101891.38;5068497;28;45566;-75
2022/06/17 07:41:50;;;;;;;;;12.67;10.33;;;;;26.04;54.39;101889.25;5049985;28;46542;-76
2022/06/17 07:44:17;;;;;;;;;10.33;10.33;;;;;26.07;52.92;101899.09;5051114;28;46095;-76
2022/06/17 07:46:43;;;;;;;;;13.33;9.00;;;;;26.14;53.08;101911.47;5053243;28;46951;-77
2022/06/17 07:49:09;;;;;;;;;14.67;10.00;;;;;26.16;52.89;101915.00;5056758;28;45554;-76
2022/06/17 07:51:35;;;;;;;;;8.00;7.33;;;;;26.22;52.53;101924.72;5059344;28;46601;-75
2022/06/17 07:54:00;;;;;;;;;12.67;9.67;;;;;26.25;53.09;101921.88;5046616;28;45463;-75
2022/06/17 07:56:25;;;;;;;;;11.00;9.33;;;;;26.30;52.76;101931.59;5051133;28;60670;-75
2022/06/17 07:58:51;;;;;;;;;12.33;9.33;;;;;26.34;52.41;101938.69;5053160;28;45562;-75
2022/06/17 08:01:16;;;;;;;;;14.00;10.00;;;;;26.39;51.69;101938.50;5052356;28;70921;-75
2022/06/17 08:03:42;;;;;;;;;12.33;10.33;;;;;26.44;49.99;101941.09;5037685;28;45568;-75
2022/06/17 08:06:09;;;;;;;;;8.00;8.00;;;;;26.48;50.19;101929.22;5035171;28;45516;-75
2022/06/17 08:08:35;;;;;;;;;9.00;9.00;;;;;26.51;49.62;101935.38;5024060;28;46502;-75
2022/06/17 08:11:01;;;;;;;;;10.33;10.00;;;;;26.56;50.15;101933.38;5046692;28;45600;-77
2022/06/17 08:13:27;;;;;;;;;8.00;8.00;;;;;26.61;49.89;101935.91;5047047;28;45583;-76
2022/06/17 08:15:56;;;;;;;;;10.00;10.00;;;;;26.65;49.78;101937.56;5051961;28;45458;-75
2022/06/17 08:18:21;;;;;;;;;9.33;9.00;;;;;26.69;49.07;101936.50;5051787;28;45527;-76
2022/06/17 08:20:48;;;;;;;;;9.67;9.67;;;;;26.73;49.21;101931.84;5051058;28;66554;-76
2022/06/17 08:23:14;;;;;;;;;10.00;8.00;;;;;26.77;48.94;101931.66;5052742;28;45509;-75
2022/06/17 08:25:40;;;;;;;;;10.33;9.00;;;;;26.81;48.76;101921.59;5051924;28;45608;-75
2022/06/17 08:28:08;;;;;;;;;10.00;8.67;;;;;26.85;49.19;101923.25;5051519;28;45402;-76
2022/06/17 08:30:36;;;;;;;;;12.00;10.67;;;;;26.88;48.98;101921.28;5052429;28;45846;-75
2022/06/17 08:33:03;;;;;;;;;9.33;9.33;;;;;26.91;49.47;101923.00;5050605;28;45533;-76
2022/06/17 08:35:29;;;;;;;;;13.00;10.00;;;;;26.96;49.41;101923.69;5051503;28;45639;-75
2022/06/17 08:37:58;;;;;;;;;12.33;10.00;;;;;26.98;48.03;101921.78;5038108;28;45518;-75
2022/06/17 08:40:26;;;;;;;;;9.00;8.00;;;;;27.04;47.30;101915.25;5035493;28;47383;-75
2022/06/17 08:43:20;;;;;;;;;9.00;8.00;;;;;27.08;47.50;101904.25;5054950;28;45357;-75
2022/06/17 08:45:53;;;;;;;;;8.00;8.00;;;;;27.12;47.44;101905.00;5021752;28;45451;-75
2022/06/17 08:48:32;;;;;;;;;9.00;9.00;;;;;27.16;47.18;101912.06;5037096;28;45669;-76
2022/06/17 08:51:00;;;;;;;;;8.67;8.67;;;;;27.19;46.45;101905.63;5050946;28;46383;-76
2022/06/17 08:53:35;;;;;;;;;10.00;9.00;;;;;27.23;47.20;101896.44;5049977;28;46024;-74
2022/06/17 08:56:16;;;;;;;;;8.00;8.00;;;;;27.28;46.69;101900.72;5051916;28;46041;-76
2022/06/17 08:59:06;;;;;;;;;23.67;11.00;;;;;27.32;47.36;101907.75;5034430;28;45407;-76
2022/06/17 09:01:48;;;;;;;;;11.33;9.67;;;;;27.37;46.99;101894.88;5048329;28;47046;-77
2022/06/17 09:04:40;;;;;;;;;10.00;9.00;;;;;27.42;46.81;101908.25;5055369;28;45950;-76
2022/06/17 09:07:22;;;;;;;;;7.33;7.33;;;;;27.47;45.05;101897.22;5049633;28;45668;-75
2022/06/17 09:09:52;;;;;;;;;8.00;8.00;;;;;27.51;44.61;101899.75;5033760;28;45551;-75
2022/06/17 09:12:50;;;;;;;;;26.67;14.00;;;;;27.55;44.38;101892.34;5046625;28;48444;-76
2022/06/17 09:15:27;;;;;;;;;11.00;8.00;;;;;27.60;44.74;101899.34;5049682;28;45505;-74
2022/06/17 09:18:13;;;;;;;;;8.67;8.67;;;;;27.67;43.56;101898.13;5054097;28;45447;-76
2022/06/17 09:20:43;;;;;;;;;8.33;8.33;;;;;27.72;43.60;101897.09;5054439;28;45377;-76
2022/06/17 09:23:13;;;;;;;;;8.00;8.00;;;;;27.75;43.51;101886.06;5057186;28;47569;-76
2022/06/17 09:25:42;;;;;;;;;10.33;8.67;;;;;27.80;43.53;101892.19;5051597;28;45715;-75
2022/06/17 09:28:13;;;;;;;;;9.00;7.33;;;;;27.84;42.99;101880.25;5052706;28;45476;-76
2022/06/17 09:30:44;;;;;;;;;9.00;7.00;;;;;27.91;42.45;101884.44;5037043;28;45544;-75
2022/06/17 09:33:19;;;;;;;;;7.67;7.67;;;;;27.96;42.45;101876.09;5036715;28;47755;-76
2022/06/17 09:36:02;;;;;;;;;8.67;8.33;;;;;28.03;41.93;101877.59;5053427;28;45715;-77
2022/06/17 09:38:36;;;;;;;;;8.33;8.00;;;;;28.10;42.17;101879.06;5036265;28;45582;-76
2022/06/17 09:41:07;;;;;;;;;11.33;10.00;;;;;28.15;41.60;101877.91;5034505;28;45464;-75
2022/06/17 09:43:38;;;;;;;;;11.00;9.33;;;;;28.20;41.52;101878.59;5062838;28;45941;-75
2022/06/17 09:46:05;;;;;;;;;10.00;8.67;;;;;28.26;41.82;101890.13;5041014;28;45828;-75
2022/06/17 09:48:42;;;;;;;;;8.00;8.00;;;;;28.30;41.80;101880.88;5037103;28;45590;-75
2022/06/17 09:51:16;;;;;;;;;9.67;7.00;;;;;28.36;42.15;101877.91;5059602;28;45759;-75
2022/06/17 09:53:52;;;;;;;;;10.67;9.00;;;;;28.41;40.42;101881.28;5060729;28;46519;-76
2022/06/17 09:56:22;;;;;;;;;7.67;7.00;;;;;28.43;40.08;101877.53;5041043;28;45533;-74
2022/06/17 09:59:19;;;;;;;;;9.00;8.00;;;;;28.49;39.85;101879.06;5060655;28;45470;-75
2022/06/17 10:01:46;;;;;;;;;8.67;8.67;;;;;28.54;40.98;101879.75;5041499;28;45635;-75
2022/06/17 10:04:13;;;;;;;;;8.00;8.00;;;;;28.59;40.57;101884.97;5039164;28;47444;-75
2022/06/17 10:06:47;;;;;;;;;9.33;9.33;;;;;28.64;40.27;101877.47;5058103;28;45440;-75
2022/06/17 10:09:18;;;;;;;;;11.00;8.33;;;;;28.69;40.20;101878.13;5057813;28;45583;-75
2022/06/17 10:12:05;;;;;;;;;7.33;7.33;;;;;28.73;40.19;101887.03;5062812;28;45466;-74
2022/06/17 10:15:00;;;;;;;;;9.00;9.00;;;;;28.78;39.53;101891.28;5044199;28;46531;-76
2022/06/17 10:20:34;;;;;;;;;9.33;7.00;;;;;28.88;39.58;101875.41;5058081;28;46036;-75
2022/06/17 10:23:15;;;;;;;;;7.33;7.00;;;;;28.94;39.45;101866.97;5059000;28;45746;-76
2022/06/17 10:25:59;;;;;;;;;7.33;7.33;;;;;29.00;37.74;101874.84;5057668;28;46648;-75
2022/06/17 10:28:46;;;;;;;;;7.00;7.00;;;;;29.04;38.42;101865.56;5058572;28;45380;-77
2022/06/17 10:31:42;;;;;;;;;7.00;7.00;;;;;29.08;38.94;101867.16;5057211;28;45371;-76
2022/06/17 10:34:11;;;;;;;;;7.00;6.00;;;;;29.15;38.53;101876.78;5039738;28;45485;-76
2022/06/17 10:36:37;;;;;;;;;6.00;6.00;;;;;29.23;37.77;101879.97;5070112;28;45590;-77
2022/06/17 10:39:03;;;;;;;;;6.67;6.67;;;;;29.26;37.60;101875.38;5044304;28;45605;-76
2022/06/17 10:41:30;;;;;;;;;8.67;7.00;;;;;29.30;37.64;101879.69;5057768;28;45345;-77
2022/06/17 10:43:56;;;;;;;;;18.67;14.00;;;;;29.33;37.61;101872.25;5057734;28;45562;-77
2022/06/17 10:46:28;;;;;;;;;10.33;8.33;;;;;29.39;37.76;101874.63;5061069;28;64260;-75
2022/06/17 10:49:09;;;;;;;;;12.33;10.00;;;;;29.42;38.58;101871.78;5041180;28;45480;-75
2022/06/17 10:51:35;;;;;;;;;12.33;12.33;;;;;29.47;39.11;101875.16;5038309;28;45574;-75
2022/06/17 10:54:05;;;;;;;;;7.33;7.33;;;;;29.57;38.28;101867.41;5040903;28;46441;-75
2022/06/17 10:56:36;;;;;;;;;12.67;9.00;;;;;29.64;37.96;101868.84;5036765;28;46802;-75
2022/06/17 10:59:06;;;;;;;;;8.33;8.33;;;;;29.66;36.20;101872.34;5058187;28;45631;-76
2022/06/17 11:01:53;;;;;;;;;8.67;5.67;;;;;29.70;37.25;101868.53;5058383;28;45419;-76
2022/06/17 11:04:25;;;;;;;;;11.00;8.00;;;;;29.74;37.62;101875.56;5049455;28;45607;-76
2022/06/17 11:07:01;;;;;;;;;9.67;9.00;;;;;29.80;37.27;101879.81;5058094;28;47021;-76
2022/06/17 11:09:38;;;;;;;;;7.00;5.67;;;;;29.84;36.77;101869.66;5066303;28;45508;-75
2022/06/17 11:12:06;;;;;;;;;9.00;5.00;;;;;29.89;36.18;101867.56;5037855;28;45490;-76
2022/06/17 11:14:37;;;;;;;;;8.00;7.67;;;;;29.95;36.64;101867.22;5059590;28;45581;-76
2022/06/17 11:17:13;;;;;;;;;8.00;8.00;;;;;30.00;36.50;101871.47;5061554;28;47405;-76
2022/06/17 11:19:39;;;;;;;;;8.00;8.00;;;;;30.07;35.85;101866.56;5061658;28;45560;-75
2022/06/17 11:22:05;;;;;;;;;8.00;8.00;;;;;30.12;36.28;101863.63;5057056;28;45450;-76
2022/06/17 11:24:40;;;;;;;;;8.00;7.00;;;;;30.17;36.67;101859.69;5057161;28;63846;-75
2022/06/17 11:27:21;;;;;;;;;7.00;7.00;;;;;30.28;36.93;101864.53;5064078;28;47367;-75
2022/06/17 11:29:50;;;;;;;;;8.67;6.00;;;;;30.35;36.53;101865.06;5056921;28;45447;-76
2022/06/17 11:32:31;;;;;;;;;8.67;8.67;;;;;30.42;35.96;101850.16;5071315;28;45358;-76
2022/06/17 11:34:59;;;;;;;;;7.00;7.00;;;;;30.53;36.33;101853.16;5054177;28;45635;-75
2022/06/17 11:37:33;;;;;;;;;8.67;7.33;;;;;30.66;36.53;101861.50;5070348;28;47420;-76
2022/06/17 11:40:13;;;;;;;;;8.00;7.00;;;;;30.78;35.91;101853.50;5039439;28;45452;-74
2022/06/17 11:42:45;;;;;;;;;6.33;6.33;;;;;30.90;35.08;101846.50;5059223;28;45471;-76